createdAt,value
2023-09-06T00:02:18.126Z,76.30
2023-09-06T00:04:46.591Z,76.44
2023-09-06T00:07:13.968Z,76.43
2023-09-06T00:09:41.511Z,76.45
2023-09-06T00:12:08.931Z,76.67
2023-09-06T00:14:38.032Z,76.46
2023-09-06T00:17:06.175Z,76.64
2023-09-06T00:19:33.690Z,76.65
2023-09-06T00:22:01.032Z,76.86
2023-09-06T00:24:28.498Z,76.86
2023-09-06T00:26:59.289Z,76.98
2023-09-06T00:29:26.565Z,77.02
2023-09-06T00:31:53.842Z,77.19
2023-09-06T00:34:21.381Z,77.30
2023-09-06T00:36:48.643Z,77.30
2023-09-06T00:39:16.343Z,77.31
2023-09-06T00:41:43.564Z,77.39
2023-09-06T00:44:11.307Z,77.52
2023-09-06T00:46:39.166Z,77.71
2023-09-06T00:49:08.847Z,77.62
2023-09-06T00:51:36.218Z,77.79
2023-09-06T00:54:03.850Z,77.67
2023-09-06T00:56:31.548Z,77.74
2023-09-06T00:58:58.823Z,77.91
2023-09-06T01:01:26.918Z,78.01
2023-09-06T01:03:54.779Z,78.18
2023-09-06T01:06:24.823Z,78.08
2023-09-06T01:09:01.837Z,78.31
2023-09-06T01:11:29.265Z,78.47
2023-09-06T01:14:00.665Z,78.58
2023-09-06T01:16:34.470Z,78.69
2023-09-06T01:19:02.131Z,78.79
2023-09-06T01:21:37.189Z,78.77
2023-09-06T01:24:06.629Z,78.68
2023-09-06T01:26:33.767Z,78.85
2023-09-06T01:29:01.101Z,78.67
2023-09-06T01:31:29.018Z,78.82
2023-09-06T01:33:56.763Z,78.98
2023-09-06T01:36:23.965Z,79.14
2023-09-06T01:38:54.016Z,79.21
2023-09-06T01:41:21.572Z,79.34
2023-09-06T01:43:51.556Z,79.49
2023-09-06T01:46:21.757Z,79.60
2023-09-06T01:48:49.898Z,79.69
2023-09-06T01:51:17.505Z,79.72
2023-09-06T01:53:45.366Z,79.89
2023-09-06T01:56:12.583Z,79.67
2023-09-06T01:58:39.837Z,79.83
2023-09-06T02:01:07.256Z,79.89
2023-09-06T02:03:34.959Z,79.98
2023-09-06T02:06:02.684Z,80.12
2023-09-06T02:08:30.782Z,80.09
2023-09-06T02:10:58.364Z,80.11
2023-09-06T02:13:27.459Z,80.00
2023-09-06T02:15:55.054Z,80.04
2023-09-06T02:18:22.358Z,80.25
2023-09-06T02:20:51.458Z,80.45
2023-09-06T02:23:18.720Z,80.42
2023-09-06T02:25:46.777Z,80.39
2023-09-06T02:28:15.701Z,80.59
2023-09-06T02:30:47.121Z,80.59
2023-09-06T02:33:16.124Z,80.61
2023-09-06T02:35:43.505Z,80.72
2023-09-06T02:38:11.269Z,80.80
2023-09-06T02:40:44.399Z,80.82
2023-09-06T02:43:12.525Z,80.87
2023-09-06T02:45:40.723Z,80.91
2023-09-06T02:48:08.929Z,80.93
2023-09-06T02:50:37.142Z,81.24
2023-09-06T02:53:04.905Z,80.96
2023-09-06T02:55:36.718Z,81.13
2023-09-06T02:58:06.172Z,81.13
2023-09-06T03:00:37.442Z,81.13
2023-09-06T03:03:07.947Z,81.13
2023-09-06T03:05:43.003Z,81.44
2023-09-06T03:08:14.640Z,81.63
2023-09-06T03:10:42.320Z,82.00
2023-09-06T03:13:13.483Z,82.12
2023-09-06T03:15:45.098Z,82.95
2023-09-06T03:18:13.465Z,83.21
2023-09-06T03:20:46.895Z,84.08
2023-09-06T03:23:22.128Z,83.74
2023-09-06T03:25:59.605Z,83.43
2023-09-06T03:28:33.590Z,83.64
2023-09-06T03:31:02.055Z,83.45
2023-09-06T03:33:30.971Z,83.72
2023-09-06T03:35:59.456Z,83.94
2023-09-06T03:38:28.318Z,83.67
2023-09-06T03:41:03.256Z,84.08
2023-09-06T03:43:33.640Z,83.60
2023-09-06T03:46:06.153Z,83.84
2023-09-06T03:48:36.069Z,83.94
2023-09-06T03:51:04.511Z,84.07
2023-09-06T03:53:33.273Z,83.69
2023-09-06T03:56:01.968Z,83.79
2023-09-06T03:58:45.087Z,83.75
2023-09-06T04:01:13.126Z,83.53
2023-09-06T04:03:43.601Z,83.79
2023-09-06T04:06:12.795Z,83.81
2023-09-06T04:08:41.665Z,83.74
2023-09-06T04:11:12.611Z,83.86
2023-09-06T04:13:41.630Z,83.90
2023-09-06T04:16:09.307Z,84.00
2023-09-06T04:18:38.793Z,83.88
2023-09-06T04:21:10.257Z,83.90
2023-09-06T04:23:41.401Z,84.02
2023-09-06T04:26:11.077Z,83.97
2023-09-06T04:28:38.400Z,83.84
2023-09-06T04:31:09.818Z,83.97
2023-09-06T04:33:40.374Z,83.89
2023-09-06T04:36:13.522Z,83.77
2023-09-06T04:38:40.709Z,83.71
2023-09-06T04:41:11.778Z,83.92
2023-09-06T04:43:45.849Z,83.98
2023-09-06T04:46:15.062Z,83.89
2023-09-06T04:48:47.340Z,83.87
2023-09-06T04:51:15.933Z,83.54
2023-09-06T04:53:45.275Z,83.67
2023-09-06T04:56:17.362Z,83.69
2023-09-06T04:58:50.336Z,83.78
2023-09-06T05:01:17.681Z,83.95
2023-09-06T05:03:46.873Z,83.99
2023-09-06T05:06:14.903Z,83.69
2023-09-06T05:08:43.856Z,83.81
2023-09-06T05:11:21.324Z,83.94
2023-09-06T05:13:51.132Z,83.53
2023-09-06T05:16:19.648Z,83.58
2023-09-06T05:18:49.880Z,83.29
2023-09-06T05:21:19.819Z,83.14
2023-09-06T05:23:47.328Z,83.48
2023-09-06T05:26:14.541Z,83.68
2023-09-06T05:28:46.477Z,83.42
2023-09-06T05:31:14.369Z,83.57
2023-09-06T05:33:44.450Z,83.26
2023-09-06T05:36:14.544Z,83.05
2023-09-06T05:38:43.000Z,82.77
2023-09-06T05:41:12.871Z,82.90
2023-09-06T05:43:43.419Z,82.68
2023-09-06T05:46:29.658Z,82.54
2023-09-06T05:49:00.984Z,83.01
2023-09-06T05:51:32.879Z,82.43
2023-09-06T05:54:01.991Z,82.52
2023-09-06T05:56:30.940Z,82.80
2023-09-06T05:58:59.804Z,82.81
2023-09-06T06:01:27.878Z,82.83
2023-09-06T06:03:55.414Z,82.59
2023-09-06T06:06:23.922Z,82.47
2023-09-06T06:08:51.645Z,82.36
2023-09-06T06:11:19.001Z,82.18
2023-09-06T06:13:53.195Z,82.13
2023-09-06T06:16:28.118Z,81.59
2023-09-06T06:18:55.568Z,81.33
2023-09-06T06:21:23.400Z,80.96
2023-09-06T06:23:51.125Z,81.29
2023-09-06T06:26:20.698Z,81.00
2023-09-06T06:28:48.568Z,81.18
2023-09-06T06:31:16.268Z,81.24
2023-09-06T06:33:44.792Z,80.69
2023-09-06T06:36:12.071Z,80.56
2023-09-06T06:38:39.341Z,80.40
2023-09-06T06:41:06.964Z,80.11
2023-09-06T06:43:35.056Z,80.19
2023-09-06T06:46:05.752Z,80.08
2023-09-06T06:48:33.794Z,79.76
2023-09-06T06:51:01.067Z,79.71
2023-09-06T06:53:28.333Z,79.17
2023-09-06T06:55:55.683Z,78.96
2023-09-06T06:58:23.190Z,78.61
2023-09-06T07:00:50.765Z,78.10
2023-09-06T07:03:18.232Z,77.82
2023-09-06T07:05:45.553Z,77.78
2023-09-06T07:08:12.855Z,77.37
2023-09-06T07:10:40.016Z,77.05
2023-09-06T07:13:07.358Z,76.61
2023-09-06T07:15:35.009Z,76.29
2023-09-06T07:18:06.012Z,76.57
2023-09-06T07:20:33.942Z,76.05
2023-09-06T07:23:01.241Z,75.98
2023-09-06T07:25:29.264Z,76.07
2023-09-06T07:27:58.577Z,76.05
2023-09-06T07:30:26.717Z,75.70
2023-09-06T07:32:54.474Z,75.37
2023-09-06T07:35:22.006Z,74.94
2023-09-06T07:37:49.439Z,74.60
2023-09-06T07:40:16.854Z,74.09
2023-09-06T07:42:44.034Z,74.17
2023-09-06T07:45:11.747Z,74.12
2023-09-06T07:47:39.361Z,73.39
2023-09-06T07:50:10.492Z,73.13
2023-09-06T07:52:38.508Z,73.33
2023-09-06T07:55:06.739Z,73.20
2023-09-06T07:57:33.961Z,72.80
2023-09-06T08:00:01.272Z,73.07
2023-09-06T08:02:28.580Z,71.91
2023-09-06T08:04:55.884Z,71.70
2023-09-06T08:07:23.715Z,71.21
2023-09-06T08:09:51.021Z,70.51
2023-09-06T08:12:18.436Z,70.52
2023-09-06T08:14:45.739Z,70.53
2023-09-06T08:17:14.071Z,70.02
2023-09-06T08:19:41.335Z,70.46
2023-09-06T08:22:08.607Z,69.58
2023-09-06T08:24:36.232Z,69.69
2023-09-06T08:27:06.457Z,69.35
2023-09-06T08:29:34.127Z,69.45
2023-09-06T08:32:01.684Z,68.84
2023-09-06T08:34:29.308Z,68.38
2023-09-06T08:36:57.985Z,67.53
2023-09-06T08:39:25.453Z,65.51
2023-09-06T08:41:53.676Z,64.53
2023-09-06T08:44:22.863Z,63.86
2023-09-06T08:46:50.218Z,64.95
2023-09-06T08:49:17.617Z,64.68
2023-09-06T08:51:44.917Z,65.45
2023-09-06T08:54:13.930Z,65.57
2023-09-06T08:56:41.332Z,65.00
2023-09-06T08:59:10.048Z,64.12
2023-09-06T09:01:39.314Z,63.94
2023-09-06T09:04:06.903Z,64.24
2023-09-06T09:06:34.831Z,64.09
2023-09-06T09:09:15.656Z,61.36
2023-09-06T09:11:47.229Z,60.75
2023-09-06T09:14:27.647Z,60.98
2023-09-06T09:16:59.411Z,61.83
2023-09-06T09:19:27.146Z,60.05
2023-09-06T09:21:56.552Z,60.67
2023-09-06T09:24:30.800Z,60.02
2023-09-06T09:26:58.497Z,59.29
2023-09-06T09:29:26.666Z,58.20
2023-09-06T09:31:54.417Z,59.36
2023-09-06T09:34:22.544Z,59.40
2023-09-06T09:36:52.233Z,58.44
2023-09-06T09:39:20.552Z,57.90
2023-09-06T09:41:59.025Z,57.32
2023-09-06T09:44:27.927Z,58.13
2023-09-06T09:46:56.118Z,58.10
2023-09-06T09:49:23.438Z,57.95
2023-09-06T09:51:51.587Z,57.87
2023-09-06T09:54:19.327Z,57.84
2023-09-06T09:56:50.909Z,56.03
2023-09-06T09:59:18.147Z,55.77
2023-09-06T10:01:45.965Z,53.30
2023-09-06T10:04:13.613Z,55.12
2023-09-06T10:06:41.094Z,53.84
2023-09-06T10:09:14.293Z,55.44
2023-09-06T10:11:42.209Z,55.01
2023-09-06T10:14:09.409Z,54.63
2023-09-06T10:16:37.087Z,54.41
2023-09-06T10:19:04.763Z,54.76
2023-09-06T10:21:33.177Z,54.44
2023-09-06T10:24:01.915Z,54.58
2023-09-06T10:26:35.386Z,54.53
2023-09-06T10:29:02.818Z,54.29
2023-09-06T10:32:00.653Z,53.48
2023-09-06T10:34:28.290Z,53.15
2023-09-06T10:36:58.414Z,53.35
2023-09-06T10:39:27.358Z,49.12
2023-09-06T10:42:10.356Z,50.58
2023-09-06T10:45:00.333Z,50.36
2023-09-06T10:47:35.180Z,50.62
2023-09-06T10:50:19.069Z,50.10
2023-09-06T10:52:59.915Z,50.09
2023-09-06T10:55:28.875Z,50.28
2023-09-06T10:58:07.701Z,50.41
2023-09-06T11:00:37.953Z,49.48
2023-09-06T11:03:08.534Z,49.39
2023-09-06T11:05:43.972Z,47.98
2023-09-06T11:08:16.013Z,49.09
2023-09-06T11:10:44.584Z,49.61
2023-09-06T11:13:13.585Z,48.54
2023-09-06T11:15:41.511Z,49.70
2023-09-06T11:18:10.385Z,49.74
2023-09-06T11:20:38.055Z,48.96
2023-09-06T11:23:05.455Z,47.44
2023-09-06T11:25:33.422Z,48.03
2023-09-06T11:28:03.948Z,48.20
2023-09-06T11:30:35.183Z,48.29
2023-09-06T11:33:07.530Z,47.51
2023-09-06T11:35:39.706Z,48.37
2023-09-06T11:38:12.472Z,46.74
2023-09-06T11:40:40.302Z,47.05
2023-09-06T11:43:10.177Z,44.61
2023-09-06T11:45:37.460Z,45.93
2023-09-06T11:48:10.367Z,46.27
2023-09-06T11:50:39.826Z,46.63
2023-09-06T11:53:11.113Z,44.31
2023-09-06T11:55:42.892Z,44.49
2023-09-06T11:58:19.792Z,44.48
2023-09-06T12:00:49.420Z,45.40
2023-09-06T12:03:17.764Z,45.20
2023-09-06T12:05:50.344Z,45.83
2023-09-06T12:08:23.730Z,44.97
2023-09-06T12:10:59.618Z,44.74
2023-09-06T12:13:36.063Z,44.77
2023-09-06T12:16:05.634Z,45.25
2023-09-06T12:18:33.854Z,45.27
2023-09-06T12:21:01.659Z,44.96
2023-09-06T12:23:32.039Z,43.81
2023-09-06T12:26:00.191Z,44.66
2023-09-06T12:28:29.381Z,43.47
2023-09-06T12:31:00.139Z,43.69
2023-09-06T12:33:30.622Z,44.02
2023-09-06T12:36:02.129Z,44.33
2023-09-06T12:38:30.740Z,45.09
2023-09-06T12:40:59.284Z,44.43
2023-09-06T12:43:27.878Z,43.72
2023-09-06T12:45:55.774Z,45.06
2023-09-06T12:48:24.424Z,44.62
2023-09-06T12:50:53.065Z,44.81
2023-09-06T12:53:22.727Z,44.40
2023-09-06T12:55:50.778Z,44.79
2023-09-06T12:58:19.153Z,45.52
2023-09-06T13:00:47.283Z,46.09
2023-09-06T13:03:14.944Z,45.05
2023-09-06T13:05:42.918Z,45.46
2023-09-06T13:08:11.317Z,45.50
2023-09-06T13:10:40.310Z,45.54
2023-09-06T13:13:07.833Z,46.02
2023-09-06T13:15:35.166Z,45.27
2023-09-06T13:18:02.765Z,45.07
2023-09-06T13:20:30.751Z,45.91
2023-09-06T13:22:58.513Z,45.71
2023-09-06T13:25:26.146Z,45.29
2023-09-06T13:27:53.529Z,44.98
2023-09-06T13:30:21.259Z,45.33
2023-09-06T13:32:49.373Z,44.95
2023-09-06T13:35:17.348Z,43.95
2023-09-06T13:37:45.597Z,44.61
2023-09-06T13:40:13.409Z,44.78
2023-09-06T13:42:41.192Z,45.05
2023-09-06T13:45:09.491Z,44.57
2023-09-06T13:47:37.296Z,45.58
2023-09-06T13:50:05.394Z,45.24
2023-09-06T13:52:33.030Z,45.01
2023-09-06T13:55:00.704Z,44.25
2023-09-06T13:57:30.058Z,44.56
2023-09-06T13:59:57.676Z,45.42
2023-09-06T14:02:27.006Z,45.53
2023-09-06T14:04:57.373Z,45.67
2023-09-06T14:07:25.055Z,46.76
2023-09-06T14:09:52.677Z,46.58
2023-09-06T14:12:20.298Z,45.74
2023-09-06T14:14:47.701Z,44.75
2023-09-06T14:17:15.176Z,45.87
2023-09-06T14:19:42.629Z,46.11
2023-09-06T14:22:11.631Z,45.28
2023-09-06T14:24:39.378Z,45.74
2023-09-06T14:27:07.062Z,45.14
2023-09-06T14:29:34.423Z,45.44
2023-09-06T14:32:04.471Z,45.60
2023-09-06T14:34:32.204Z,45.97
2023-09-06T14:36:59.911Z,46.27
2023-09-06T14:39:27.517Z,46.37
2023-09-06T14:41:55.216Z,46.11
2023-09-06T14:44:22.895Z,45.82
2023-09-06T14:46:51.074Z,46.39
2023-09-06T14:49:20.793Z,46.42
2023-09-06T14:51:48.099Z,46.41
2023-09-06T14:54:15.359Z,46.76
2023-09-06T14:56:42.639Z,46.82
2023-09-06T14:59:10.813Z,46.66
2023-09-06T15:01:40.187Z,46.99
2023-09-06T15:04:08.857Z,46.72
2023-09-06T15:06:52.945Z,46.37
2023-09-06T15:09:25.723Z,45.97
2023-09-06T15:11:53.863Z,46.69
2023-09-06T15:14:21.338Z,46.75
2023-09-06T15:16:48.810Z,46.71
2023-09-06T15:19:16.099Z,45.66
2023-09-06T15:21:44.655Z,45.31
2023-09-06T15:24:12.501Z,45.90
2023-09-06T15:26:40.657Z,45.79
2023-09-06T15:29:08.392Z,45.61
2023-09-06T15:31:35.933Z,44.67
2023-09-06T15:34:04.632Z,45.64
2023-09-06T15:36:32.325Z,45.87
2023-09-06T15:39:00.490Z,45.52
2023-09-06T15:41:33.623Z,45.41
2023-09-06T15:44:06.169Z,44.63
2023-09-06T15:46:33.845Z,44.17
2023-09-06T15:49:01.281Z,44.38
2023-09-06T15:51:28.843Z,44.40
2023-09-06T15:53:56.293Z,44.42
2023-09-06T15:56:24.195Z,44.91
2023-09-06T15:58:51.747Z,45.27
2023-09-06T16:01:18.968Z,45.20
2023-09-06T16:03:46.544Z,45.36
2023-09-06T16:06:14.079Z,45.35
2023-09-06T16:08:41.398Z,45.55
2023-09-06T16:11:09.417Z,45.41
2023-09-06T16:13:36.683Z,45.27
2023-09-06T16:16:04.093Z,45.60
2023-09-06T16:18:32.428Z,45.70
2023-09-06T16:20:59.828Z,46.13
2023-09-06T16:23:27.504Z,46.47
2023-09-06T16:25:54.612Z,46.45
2023-09-06T16:28:21.857Z,46.67
2023-09-06T16:30:49.231Z,47.05
2023-09-06T16:33:16.954Z,47.27
2023-09-06T16:35:44.380Z,47.50
2023-09-06T16:38:11.564Z,47.82
2023-09-06T16:40:42.769Z,47.82
2023-09-06T16:43:10.500Z,47.91
2023-09-06T16:45:37.718Z,48.34
2023-09-06T16:48:07.056Z,48.34
2023-09-06T16:50:34.264Z,48.75
2023-09-06T16:53:01.548Z,48.75
2023-09-06T16:55:28.910Z,48.87
2023-09-06T16:57:56.122Z,49.20
2023-09-06T17:00:23.906Z,49.54
2023-09-06T17:02:53.856Z,49.54
2023-09-06T17:05:21.793Z,49.40
2023-09-06T17:09:00.796Z,49.24
2023-09-06T17:11:28.471Z,49.01
2023-09-06T17:13:55.875Z,49.28
2023-09-06T17:16:23.197Z,48.97
2023-09-06T17:18:50.508Z,48.71
2023-09-06T17:21:18.578Z,48.99
2023-09-06T17:24:00.710Z,49.40
2023-09-06T17:26:33.681Z,49.81
2023-09-06T17:29:00.972Z,49.46
2023-09-06T17:31:28.733Z,49.21
2023-09-06T17:33:56.770Z,48.86
2023-09-06T17:36:26.594Z,49.16
2023-09-06T17:38:55.304Z,49.24
2023-09-06T17:41:24.278Z,49.80
2023-09-06T17:43:51.979Z,50.60
2023-09-06T17:46:25.877Z,51.46
2023-09-06T17:48:54.308Z,51.82
2023-09-06T17:51:22.152Z,52.17
2023-09-06T17:53:49.565Z,52.46
2023-09-06T17:56:17.856Z,52.75
2023-09-06T17:58:46.335Z,52.91
2023-09-06T18:01:15.629Z,52.82
2023-09-06T18:03:45.424Z,52.77
2023-09-06T18:06:16.032Z,52.44
2023-09-06T18:08:43.893Z,52.49
2023-09-06T18:11:12.953Z,52.74
2023-09-06T18:13:41.352Z,53.38
2023-09-06T18:16:14.125Z,54.03
2023-09-06T18:18:41.538Z,54.22
2023-09-06T18:21:10.677Z,54.65
2023-09-06T18:23:38.844Z,55.06
2023-09-06T18:26:09.199Z,55.24
2023-09-06T18:28:36.917Z,55.47
2023-09-06T18:31:04.413Z,55.67
2023-09-06T18:33:31.805Z,55.82
2023-09-06T18:35:59.416Z,55.90
2023-09-06T18:38:28.027Z,55.97
2023-09-06T18:40:57.176Z,56.12
2023-09-06T18:43:25.355Z,56.24
2023-09-06T18:45:52.930Z,56.36
2023-09-06T18:48:21.981Z,56.36
2023-09-06T18:50:49.714Z,56.92
2023-09-06T18:53:17.388Z,56.68
2023-09-06T18:55:48.278Z,56.94
2023-09-06T18:58:18.638Z,57.22
2023-09-06T19:00:46.571Z,56.87
2023-09-06T19:03:15.055Z,56.38
2023-09-06T19:05:43.441Z,56.19
2023-09-06T19:08:13.356Z,56.36
2023-09-06T19:10:41.600Z,56.26
2023-09-06T19:13:15.687Z,55.97
2023-09-06T19:15:48.221Z,56.52
2023-09-06T19:18:17.066Z,56.63
2023-09-06T19:20:44.778Z,56.64
2023-09-06T19:23:17.836Z,56.38
2023-09-06T19:25:53.057Z,56.27
2023-09-06T19:28:22.551Z,56.33
2023-09-06T19:30:57.876Z,56.00
2023-09-06T19:33:26.782Z,55.78
2023-09-06T19:35:55.479Z,56.07
2023-09-06T19:38:23.668Z,56.29
2023-09-06T19:40:53.335Z,56.26
2023-09-06T19:43:21.123Z,56.24
2023-09-06T19:45:56.552Z,56.36
2023-09-06T19:48:24.304Z,56.18
2023-09-06T19:50:51.722Z,56.88
2023-09-06T19:53:19.052Z,57.44
2023-09-06T19:55:49.562Z,57.54
2023-09-06T19:58:17.424Z,57.77
2023-09-06T20:00:44.527Z,57.98
2023-09-06T20:03:11.901Z,58.21
2023-09-06T20:05:39.358Z,58.47
2023-09-06T20:08:06.923Z,58.13
2023-09-06T20:10:40.226Z,58.19
2023-09-06T20:13:07.526Z,58.75
2023-09-06T20:15:36.985Z,58.97
2023-09-06T20:18:04.648Z,59.58
2023-09-06T20:20:31.906Z,59.36
2023-09-06T20:22:59.535Z,59.47
2023-09-06T20:25:27.545Z,59.28
2023-09-06T20:27:56.463Z,59.59
2023-09-06T20:30:24.074Z,59.47
2023-09-06T20:32:51.477Z,59.93
2023-09-06T20:35:18.931Z,60.57
2023-09-06T20:37:46.221Z,60.43
2023-09-06T20:40:14.729Z,60.68
2023-09-06T20:42:41.859Z,60.75
2023-09-06T20:45:09.300Z,61.03
2023-09-06T20:47:37.009Z,61.03
2023-09-06T20:50:06.288Z,60.92
2023-09-06T20:52:33.665Z,61.18
2023-09-06T20:55:01.075Z,61.50
2023-09-06T20:57:28.381Z,61.69
2023-09-06T20:59:55.746Z,61.92
2023-09-06T21:02:22.928Z,62.17
2023-09-06T21:04:50.233Z,62.74
2023-09-06T21:07:17.845Z,62.79
2023-09-06T21:09:45.197Z,62.79
2023-09-06T21:12:13.464Z,63.07
2023-09-06T21:14:40.670Z,63.37
2023-09-06T21:17:07.922Z,63.67
2023-09-06T21:19:35.165Z,63.83
2023-09-06T21:22:02.442Z,64.03
2023-09-06T21:24:31.287Z,64.22
2023-09-06T21:26:58.883Z,63.60
2023-09-06T21:29:29.167Z,63.59
2023-09-06T21:31:57.587Z,63.64
2023-09-06T21:34:25.063Z,64.20
2023-09-06T21:36:52.531Z,64.20
2023-09-06T21:39:19.816Z,64.02
2023-09-06T21:41:47.114Z,64.41
2023-09-06T21:44:14.661Z,64.56
2023-09-06T21:46:42.087Z,64.62
2023-09-06T21:49:09.503Z,64.52
2023-09-06T21:51:36.757Z,64.96
2023-09-06T21:54:04.181Z,65.21
2023-09-06T21:56:31.501Z,64.98
2023-09-06T21:59:00.595Z,64.99
2023-09-06T22:01:29.578Z,65.28
2023-09-06T22:04:15.844Z,65.66
2023-09-06T22:07:02.347Z,65.86
2023-09-06T22:09:48.182Z,65.68
2023-09-06T22:12:34.508Z,65.88
2023-09-06T22:15:05.620Z,66.09
2023-09-06T22:17:33.030Z,66.28
2023-09-06T22:20:00.368Z,66.41
2023-09-06T22:22:27.846Z,66.49
2023-09-06T22:24:55.167Z,66.52
2023-09-06T22:27:22.466Z,66.72
2023-09-06T22:29:49.965Z,66.63
2023-09-06T22:32:17.259Z,66.76
2023-09-06T22:34:44.569Z,66.78
2023-09-06T22:37:12.500Z,67.02
2023-09-06T22:39:39.791Z,67.13
2023-09-06T22:42:07.029Z,67.23
2023-09-06T22:44:35.372Z,67.39
2023-09-06T22:47:04.084Z,67.65
2023-09-06T22:49:31.784Z,67.48
2023-09-06T22:51:59.037Z,67.82
2023-09-06T22:54:26.413Z,68.23
2023-09-06T22:56:53.561Z,68.32
2023-09-06T22:59:21.964Z,68.58
2023-09-06T23:01:51.283Z,68.70
2023-09-06T23:04:19.000Z,69.32
2023-09-06T23:06:46.935Z,69.27
2023-09-06T23:09:14.532Z,69.33
2023-09-06T23:11:46.750Z,69.64
2023-09-06T23:14:16.592Z,69.65
2023-09-06T23:16:44.156Z,69.61
2023-09-06T23:19:14.433Z,69.58
2023-09-06T23:21:44.263Z,69.75
2023-09-06T23:24:15.393Z,69.67
2023-09-06T23:26:47.442Z,69.96
2023-09-06T23:29:17.281Z,70.08
2023-09-06T23:31:54.606Z,70.20
2023-09-06T23:34:31.609Z,70.32
2023-09-06T23:37:00.924Z,70.40
2023-09-06T23:39:29.538Z,70.48
2023-09-06T23:41:58.446Z,70.54
2023-09-06T23:44:26.109Z,70.53
2023-09-06T23:46:56.093Z,70.46
2023-09-06T23:49:23.802Z,70.40
2023-09-06T23:51:51.118Z,70.33
2023-09-06T23:54:19.968Z,70.40
2023-09-06T23:56:50.246Z,70.31
2023-09-06T23:59:17.948Z,70.19
